sensor_id;sensor_type;location;lat;lon;timestamp;temperature;humidity
2565;DHT22;1292;48.020;7.822;2023-08-30T05:46:20;14.10;99.90
2565;DHT22;1292;48.020;7.822;2023-08-30T05:48:47;14.10;99.90
2565;DHT22;1292;48.020;7.822;2023-08-30T05:51:13;14.20;99.90
2565;DHT22;1292;48.020;7.822;2023-08-30T05:53:40;14.30;99.90
2565;DHT22;1292;48.020;7.822;2023-08-30T05:56:07;14.40;99.90
2565;DHT22;1292;48.020;7.822;2023-08-30T05:58:34;14.50;99.90
2565;DHT22;1292;48.020;7.822;2023-08-30T06:01:01;14.60;99.90
2565;DHT22;1292;48.020;7.822;2023-08-30T06:03:30;14.60;99.90
2565;DHT22;1292;48.020;7.822;2023-08-30T06:05:56;14.70;99.90
2565;DHT22;1292;48.020;7.822;2023-08-30T06:08:23;14.80;99.90
2565;DHT22;1292;48.020;7.822;2023-08-30T06:10:50;14.80;99.90
2565;DHT22;1292;48.020;7.822;2023-08-30T06:13:17;14.90;99.90
2565;DHT22;1292;48.020;7.822;2023-08-30T06:15:43;14.90;99.90
2565;DHT22;1292;48.020;7.822;2023-08-30T06:18:11;15.00;99.90
2565;DHT22;1292;48.020;7.822;2023-08-30T06:20:41;15.00;99.90
2565;DHT22;1292;48.020;7.822;2023-08-30T06:23:08;15.10;99.90
2565;DHT22;1292;48.020;7.822;2023-08-30T06:25:35;15.20;99.90
2565;DHT22;1292;48.020;7.822;2023-08-30T06:28:02;15.30;99.90
2565;DHT22;1292;48.020;7.822;2023-08-30T06:30:29;15.30;99.90
2565;DHT22;1292;48.020;7.822;2023-08-30T06:32:56;15.40;99.90
2565;DHT22;1292;48.020;7.822;2023-08-30T06:35:23;15.50;99.90
2565;DHT22;1292;48.020;7.822;2023-08-30T06:37:51;15.50;99.90
2565;DHT22;1292;48.020;7.822;2023-08-30T06:40:19;15.60;99.90
2565;DHT22;1292;48.020;7.822;2023-08-30T06:42:45;15.70;99.90
2565;DHT22;1292;48.020;7.822;2023-08-30T06:45:12;15.70;99.90
2565;DHT22;1292;48.020;7.822;2023-08-30T06:47:39;15.80;99.90
2565;DHT22;1292;48.020;7.822;2023-08-30T06:50:07;15.80;99.90
2565;DHT22;1292;48.020;7.822;2023-08-30T06:52:35;15.90;99.90
2565;DHT22;1292;48.020;7.822;2023-08-30T06:55:03;15.90;99.90
2565;DHT22;1292;48.020;7.822;2023-08-30T06:57:30;16.00;99.90
2565;DHT22;1292;48.020;7.822;2023-08-30T06:59:57;16.00;99.90
2565;DHT22;1292;48.020;7.822;2023-08-30T07:02:25;16.10;99.90
2565;DHT22;1292;48.020;7.822;2023-08-30T07:04:53;16.20;99.90
2565;DHT22;1292;48.020;7.822;2023-08-30T07:07:20;16.20;99.90
2565;DHT22;1292;48.020;7.822;2023-08-30T07:09:47;16.20;99.90
2565;DHT22;1292;48.020;7.822;2023-08-30T07:12:20;16.30;99.90
2565;DHT22;1292;48.020;7.822;2023-08-30T07:14:49;16.40;99.90
2565;DHT22;1292;48.020;7.822;2023-08-30T07:17:18;16.40;99.90
2565;DHT22;1292;48.020;7.822;2023-08-30T07:19:45;16.30;99.90
2565;DHT22;1292;48.020;7.822;2023-08-30T07:22:12;16.40;99.90
2565;DHT22;1292;48.020;7.822;2023-08-30T07:24:39;16.40;99.90
2565;DHT22;1292;48.020;7.822;2023-08-30T07:27:05;16.50;99.90
2565;DHT22;1292;48.020;7.822;2023-08-30T07:29:34;16.60;99.90
2565;DHT22;1292;48.020;7.822;2023-08-30T07:32:01;16.70;99.90
2565;DHT22;1292;48.020;7.822;2023-08-30T07:34:28;16.80;99.90
2565;DHT22;1292;48.020;7.822;2023-08-30T07:36:55;16.90;99.90
2565;DHT22;1292;48.020;7.822;2023-08-30T07:39:22;17.00;99.90
2565;DHT22;1292;48.020;7.822;2023-08-30T07:41:49;17.00;99.90
2565;DHT22;1292;48.020;7.822;2023-08-30T07:44:16;17.10;99.90
2565;DHT22;1292;48.020;7.822;2023-08-30T07:46:46;17.20;99.90
2565;DHT22;1292;48.020;7.822;2023-08-30T07:49:13;17.30;99.90
2565;DHT22;1292;48.020;7.822;2023-08-30T07:51:40;17.30;99.90
2565;DHT22;1292;48.020;7.822;2023-08-30T07:54:07;17.40;99.90
2565;DHT22;1292;48.020;7.822;2023-08-30T07:56:34;17.40;99.90
2565;DHT22;1292;48.020;7.822;2023-08-30T07:59:01;17.40;99.90
2565;DHT22;1292;48.020;7.822;2023-08-30T08:01:28;17.50;99.90
2565;DHT22;1292;48.020;7.822;2023-08-30T08:03:57;17.60;99.90
2565;DHT22;1292;48.020;7.822;2023-08-30T08:06:23;17.60;99.90
2565;DHT22;1292;48.020;7.822;2023-08-30T08:08:50;17.60;99.90
2565;DHT22;1292;48.020;7.822;2023-08-30T08:11:17;17.60;99.90
2565;DHT22;1292;48.020;7.822;2023-08-30T08:13:44;17.70;99.90
2565;DHT22;1292;48.020;7.822;2023-08-30T08:16:11;17.70;99.90
2565;DHT22;1292;48.020;7.822;2023-08-30T08:18:37;17.70;99.90
2565;DHT22;1292;48.020;7.822;2023-08-30T08:21:05;17.80;99.90
2565;DHT22;1292;48.020;7.822;2023-08-30T08:23:32;17.90;99.90
2565;DHT22;1292;48.020;7.822;2023-08-30T08:25:59;18.00;99.90
2565;DHT22;1292;48.020;7.822;2023-08-30T08:28:28;18.10;99.90
2565;DHT22;1292;48.020;7.822;2023-08-30T08:30:54;18.10;99.90
2565;DHT22;1292;48.020;7.822;2023-08-30T08:33:21;18.10;99.90
2565;DHT22;1292;48.020;7.822;2023-08-30T08:35:49;18.10;99.90
2565;DHT22;1292;48.020;7.822;2023-08-30T08:38:17;18.20;99.90
2565;DHT22;1292;48.020;7.822;2023-08-30T08:40:44;18.20;99.90
2565;DHT22;1292;48.020;7.822;2023-08-30T08:43:11;18.30;99.90
2565;DHT22;1292;48.020;7.822;2023-08-30T08:45:38;18.10;99.90
2565;DHT22;1292;48.020;7.822;2023-08-30T08:48:06;17.80;99.90
2565;DHT22;1292;48.020;7.822;2023-08-30T08:50:34;18.00;99.90
2565;DHT22;1292;48.020;7.822;2023-08-30T08:53:02;18.20;99.90
2565;DHT22;1292;48.020;7.822;2023-08-30T08:55:30;18.20;99.90
2565;DHT22;1292;48.020;7.822;2023-08-30T08:57:58;18.30;99.90
2565;DHT22;1292;48.020;7.822;2023-08-30T09:00:25;18.30;99.90
2565;DHT22;1292;48.020;7.822;2023-08-30T09:02:53;18.50;99.90
2565;DHT22;1292;48.020;7.822;2023-08-30T09:05:20;18.30;99.90
2565;DHT22;1292;48.020;7.822;2023-08-30T09:07:48;18.50;99.90
2565;DHT22;1292;48.020;7.822;2023-08-30T09:10:19;18.50;99.90
2565;DHT22;1292;48.020;7.822;2023-08-30T09:12:48;18.70;99.90
2565;DHT22;1292;48.020;7.822;2023-08-30T09:15:15;18.80;99.90
2565;DHT22;1292;48.020;7.822;2023-08-30T09:17:43;18.80;99.90
2565;DHT22;1292;48.020;7.822;2023-08-30T09:20:11;18.90;99.90
2565;DHT22;1292;48.020;7.822;2023-08-30T09:22:39;19.10;99.90
2565;DHT22;1292;48.020;7.822;2023-08-30T09:25:08;19.10;99.90
2565;DHT22;1292;48.020;7.822;2023-08-30T09:27:35;19.10;99.90
2565;DHT22;1292;48.020;7.822;2023-08-30T09:30:07;19.10;99.90
2565;DHT22;1292;48.020;7.822;2023-08-30T09:32:39;19.10;99.90
2565;DHT22;1292;48.020;7.822;2023-08-30T09:35:07;19.10;99.90
2565;DHT22;1292;48.020;7.822;2023-08-30T09:37:34;19.00;99.90
2565;DHT22;1292;48.020;7.822;2023-08-30T09:40:01;19.30;99.90
2565;DHT22;1292;48.020;7.822;2023-08-30T09:42:28;19.50;99.90
2565;DHT22;1292;48.020;7.822;2023-08-30T09:44:56;19.50;99.90
2565;DHT22;1292;48.020;7.822;2023-08-30T09:47:25;19.60;99.90
2565;DHT22;1292;48.020;7.822;2023-08-30T09:49:55;19.60;99.90
2565;DHT22;1292;48.020;7.822;2023-08-30T09:52:24;19.40;99.90
2565;DHT22;1292;48.020;7.822;2023-08-30T09:54:51;19.50;99.90
2565;DHT22;1292;48.020;7.822;2023-08-30T09:57:19;19.60;99.90
2565;DHT22;1292;48.020;7.822;2023-08-30T09:59:48;19.60;99.90
2565;DHT22;1292;48.020;7.822;2023-08-30T10:02:16;19.60;99.90
2565;DHT22;1292;48.020;7.822;2023-08-30T10:04:45;19.70;99.90
2565;DHT22;1292;48.020;7.822;2023-08-30T10:07:14;19.80;99.90
2565;DHT22;1292;48.020;7.822;2023-08-30T10:09:41;19.70;99.90
2565;DHT22;1292;48.020;7.822;2023-08-30T10:12:10;19.60;99.90
2565;DHT22;1292;48.020;7.822;2023-08-30T10:14:37;19.70;99.90
2565;DHT22;1292;48.020;7.822;2023-08-30T10:17:05;19.90;99.90
2565;DHT22;1292;48.020;7.822;2023-08-30T10:19:35;19.90;99.90
2565;DHT22;1292;48.020;7.822;2023-08-30T10:22:06;19.80;99.90
2565;DHT22;1292;48.020;7.822;2023-08-30T10:24:41;19.90;99.90
2565;DHT22;1292;48.020;7.822;2023-08-30T10:27:10;20.10;99.90
2565;DHT22;1292;48.020;7.822;2023-08-30T10:29:39;20.20;99.90
2565;DHT22;1292;48.020;7.822;2023-08-30T10:32:08;20.30;99.90
2565;DHT22;1292;48.020;7.822;2023-08-30T10:34:36;20.40;99.90
2565;DHT22;1292;48.020;7.822;2023-08-30T10:37:06;20.60;99.90
2565;DHT22;1292;48.020;7.822;2023-08-30T10:39:35;20.60;99.90
2565;DHT22;1292;48.020;7.822;2023-08-30T10:42:08;20.60;99.90
2565;DHT22;1292;48.020;7.822;2023-08-30T10:44:35;20.60;99.90
2565;DHT22;1292;48.020;7.822;2023-08-30T10:47:18;20.70;99.90
2565;DHT22;1292;48.020;7.822;2023-08-30T10:49:46;20.70;99.90
2565;DHT22;1292;48.020;7.822;2023-08-30T10:52:15;20.70;99.90
2565;DHT22;1292;48.020;7.822;2023-08-30T10:54:42;20.80;99.90
2565;DHT22;1292;48.020;7.822;2023-08-30T10:57:13;21.00;99.90
2565;DHT22;1292;48.020;7.822;2023-08-30T10:59:40;20.90;99.90
2565;DHT22;1292;48.020;7.822;2023-08-30T11:02:07;21.00;99.90
2565;DHT22;1292;48.020;7.822;2023-08-30T11:04:39;21.10;99.90
2565;DHT22;1292;48.020;7.822;2023-08-30T11:07:08;21.10;99.90
2565;DHT22;1292;48.020;7.822;2023-08-30T11:09:37;21.10;99.90
2565;DHT22;1292;48.020;7.822;2023-08-30T11:12:06;21.20;99.90
2565;DHT22;1292;48.020;7.822;2023-08-30T11:14:33;21.10;99.90
2565;DHT22;1292;48.020;7.822;2023-08-30T11:17:00;21.00;99.90
2565;DHT22;1292;48.020;7.822;2023-08-30T11:19:29;21.10;99.90
2565;DHT22;1292;48.020;7.822;2023-08-30T11:21:56;21.20;99.90
2565;DHT22;1292;48.020;7.822;2023-08-30T11:24:23;21.40;99.90
2565;DHT22;1292;48.020;7.822;2023-08-30T11:26:54;21.50;99.90
2565;DHT22;1292;48.020;7.822;2023-08-30T11:29:20;21.50;99.90
2565;DHT22;1292;48.020;7.822;2023-08-30T11:31:49;21.60;99.90
2565;DHT22;1292;48.020;7.822;2023-08-30T11:34:20;21.60;99.90
2565;DHT22;1292;48.020;7.822;2023-08-30T11:36:48;21.30;99.90
2565;DHT22;1292;48.020;7.822;2023-08-30T11:39:16;21.10;99.90
2565;DHT22;1292;48.020;7.822;2023-08-30T11:41:43;21.10;99.90
2565;DHT22;1292;48.020;7.822;2023-08-30T11:44:11;21.20;99.90
2565;DHT22;1292;48.020;7.822;2023-08-30T11:46:38;21.40;99.90
2565;DHT22;1292;48.020;7.822;2023-08-30T11:49:05;21.50;99.90
2565;DHT22;1292;48.020;7.822;2023-08-30T11:51:32;21.50;99.90
2565;DHT22;1292;48.020;7.822;2023-08-30T11:53:59;21.40;99.90
2565;DHT22;1292;48.020;7.822;2023-08-30T11:56:28;21.30;99.90
2565;DHT22;1292;48.020;7.822;2023-08-30T11:58:55;21.20;99.90
2565;DHT22;1292;48.020;7.822;2023-08-30T12:01:23;21.20;99.90
2565;DHT22;1292;48.020;7.822;2023-08-30T12:03:50;21.40;99.90
2565;DHT22;1292;48.020;7.822;2023-08-30T12:06:17;21.50;99.90
2565;DHT22;1292;48.020;7.822;2023-08-30T12:08:44;21.70;99.90
2565;DHT22;1292;48.020;7.822;2023-08-30T12:11:18;21.80;99.90
2565;DHT22;1292;48.020;7.822;2023-08-30T12:13:45;21.60;99.90
2565;DHT22;1292;48.020;7.822;2023-08-30T12:16:15;21.50;99.90
2565;DHT22;1292;48.020;7.822;2023-08-30T12:18:46;21.60;99.90
2565;DHT22;1292;48.020;7.822;2023-08-30T12:21:13;21.50;99.90
2565;DHT22;1292;48.020;7.822;2023-08-30T12:23:41;21.40;99.90
2565;DHT22;1292;48.020;7.822;2023-08-30T12:26:08;21.40;99.90
2565;DHT22;1292;48.020;7.822;2023-08-30T12:28:36;21.50;99.90
2565;DHT22;1292;48.020;7.822;2023-08-30T12:31:04;21.60;99.90
2565;DHT22;1292;48.020;7.822;2023-08-30T12:33:31;21.70;99.90
2565;DHT22;1292;48.020;7.822;2023-08-30T12:36:01;21.80;99.90
2565;DHT22;1292;48.020;7.822;2023-08-30T12:38:29;21.60;99.90
2565;DHT22;1292;48.020;7.822;2023-08-30T12:40:56;21.50;99.90
2565;DHT22;1292;48.020;7.822;2023-08-30T12:43:23;21.30;99.90
2565;DHT22;1292;48.020;7.822;2023-08-30T12:45:50;21.30;99.90
2565;DHT22;1292;48.020;7.822;2023-08-30T12:48:18;21.20;99.90
2565;DHT22;1292;48.020;7.822;2023-08-30T12:50:47;21.00;99.90
2565;DHT22;1292;48.020;7.822;2023-08-30T12:53:15;21.00;99.90
2565;DHT22;1292;48.020;7.822;2023-08-30T12:55:43;21.00;99.90
2565;DHT22;1292;48.020;7.822;2023-08-30T12:58:10;21.20;99.90
2565;DHT22;1292;48.020;7.822;2023-08-30T13:00:40;21.10;99.90
2565;DHT22;1292;48.020;7.822;2023-08-30T13:03:06;21.20;99.90
2565;DHT22;1292;48.020;7.822;2023-08-30T13:05:33;21.30;99.90
2565;DHT22;1292;48.020;7.822;2023-08-30T13:08:01;21.40;99.90
2565;DHT22;1292;48.020;7.822;2023-08-30T13:10:30;21.30;99.90
2565;DHT22;1292;48.020;7.822;2023-08-30T13:12:56;21.40;99.90
2565;DHT22;1292;48.020;7.822;2023-08-30T13:15:23;21.60;99.90
2565;DHT22;1292;48.020;7.822;2023-08-30T13:17:50;21.70;99.90
2565;DHT22;1292;48.020;7.822;2023-08-30T13:20:18;21.80;99.90
2565;DHT22;1292;48.020;7.822;2023-08-30T13:22:45;21.80;99.90
2565;DHT22;1292;48.020;7.822;2023-08-30T13:25:12;21.90;99.90
2565;DHT22;1292;48.020;7.822;2023-08-30T13:27:40;22.00;99.90
2565;DHT22;1292;48.020;7.822;2023-08-30T13:30:07;22.00;99.90
2565;DHT22;1292;48.020;7.822;2023-08-30T13:32:34;22.00;99.90
2565;DHT22;1292;48.020;7.822;2023-08-30T13:35:01;22.00;99.90
2565;DHT22;1292;48.020;7.822;2023-08-30T13:37:28;21.90;99.90
2565;DHT22;1292;48.020;7.822;2023-08-30T13:39:55;21.80;99.90
2565;DHT22;1292;48.020;7.822;2023-08-30T13:42:21;21.70;99.90
2565;DHT22;1292;48.020;7.822;2023-08-30T13:44:51;21.80;99.90
2565;DHT22;1292;48.020;7.822;2023-08-30T13:47:18;21.80;99.90
2565;DHT22;1292;48.020;7.822;2023-08-30T13:49:46;21.80;99.90
2565;DHT22;1292;48.020;7.822;2023-08-30T13:52:12;21.80;99.90
2565;DHT22;1292;48.020;7.822;2023-08-30T13:54:39;21.70;99.90
2565;DHT22;1292;48.020;7.822;2023-08-30T13:57:06;21.70;99.90
2565;DHT22;1292;48.020;7.822;2023-08-30T13:59:33;21.50;99.90
2565;DHT22;1292;48.020;7.822;2023-08-30T14:02:02;21.80;99.90
2565;DHT22;1292;48.020;7.822;2023-08-30T14:04:29;22.00;99.90
2565;DHT22;1292;48.020;7.822;2023-08-30T14:06:58;22.20;99.90
2565;DHT22;1292;48.020;7.822;2023-08-30T14:09:25;22.40;99.90
2565;DHT22;1292;48.020;7.822;2023-08-30T14:11:51;22.20;99.90
2565;DHT22;1292;48.020;7.822;2023-08-30T14:14:20;22.00;99.90
2565;DHT22;1292;48.020;7.822;2023-08-30T14:16:47;21.80;99.90
2565;DHT22;1292;48.020;7.822;2023-08-30T14:19:19;21.60;99.90
2565;DHT22;1292;48.020;7.822;2023-08-30T14:21:45;21.70;99.90
2565;DHT22;1292;48.020;7.822;2023-08-30T14:24:12;21.70;99.90
2565;DHT22;1292;48.020;7.822;2023-08-30T14:26:39;21.60;99.90
2565;DHT22;1292;48.020;7.822;2023-08-30T14:29:06;21.60;99.90
2565;DHT22;1292;48.020;7.822;2023-08-30T14:31:33;21.60;99.90
2565;DHT22;1292;48.020;7.822;2023-08-30T14:33:59;21.50;99.90
2565;DHT22;1292;48.020;7.822;2023-08-30T14:36:28;21.50;99.90
2565;DHT22;1292;48.020;7.822;2023-08-30T14:38:55;21.50;99.90
2565;DHT22;1292;48.020;7.822;2023-08-30T14:41:21;21.40;99.90
2565;DHT22;1292;48.020;7.822;2023-08-30T14:43:48;21.40;99.90
2565;DHT22;1292;48.020;7.822;2023-08-30T14:46:15;21.50;99.90
2565;DHT22;1292;48.020;7.822;2023-08-30T14:48:43;21.50;99.90
2565;DHT22;1292;48.020;7.822;2023-08-30T14:51:10;21.50;99.90
2565;DHT22;1292;48.020;7.822;2023-08-30T14:53:38;21.50;99.90
2565;DHT22;1292;48.020;7.822;2023-08-30T14:56:05;21.40;99.90
2565;DHT22;1292;48.020;7.822;2023-08-30T14:58:36;21.30;99.90
2565;DHT22;1292;48.020;7.822;2023-08-30T15:01:03;21.30;99.90
2565;DHT22;1292;48.020;7.822;2023-08-30T15:03:30;21.40;99.90
2565;DHT22;1292;48.020;7.822;2023-08-30T15:05:57;21.40;99.90
2565;DHT22;1292;48.020;7.822;2023-08-30T15:08:25;21.50;99.90
2565;DHT22;1292;48.020;7.822;2023-08-30T15:10:53;21.50;99.90
2565;DHT22;1292;48.020;7.822;2023-08-30T15:13:20;21.70;99.90
2565;DHT22;1292;48.020;7.822;2023-08-30T15:15:47;21.70;99.90
2565;DHT22;1292;48.020;7.822;2023-08-30T15:18:14;21.80;99.90
2565;DHT22;1292;48.020;7.822;2023-08-30T15:20:40;21.70;99.90
2565;DHT22;1292;48.020;7.822;2023-08-30T15:23:12;21.70;99.90
2565;DHT22;1292;48.020;7.822;2023-08-30T15:25:43;21.70;99.90
2565;DHT22;1292;48.020;7.822;2023-08-30T15:28:12;21.70;99.90
2565;DHT22;1292;48.020;7.822;2023-08-30T15:30:41;21.70;99.90
2565;DHT22;1292;48.020;7.822;2023-08-30T15:33:09;21.60;99.90
2565;DHT22;1292;48.020;7.822;2023-08-30T15:35:37;21.60;99.90
2565;DHT22;1292;48.020;7.822;2023-08-30T15:38:04;21.70;99.90
2565;DHT22;1292;48.020;7.822;2023-08-30T15:40:31;21.70;99.90
2565;DHT22;1292;48.020;7.822;2023-08-30T15:42:58;21.80;99.90
2565;DHT22;1292;48.020;7.822;2023-08-30T15:45:27;21.80;99.90
2565;DHT22;1292;48.020;7.822;2023-08-30T15:47:53;21.80;99.90
2565;DHT22;1292;48.020;7.822;2023-08-30T15:50:20;21.80;99.90
2565;DHT22;1292;48.020;7.822;2023-08-30T15:52:47;21.80;99.90
2565;DHT22;1292;48.020;7.822;2023-08-30T15:55:14;21.80;99.90
2565;DHT22;1292;48.020;7.822;2023-08-30T15:57:41;21.80;99.90
2565;DHT22;1292;48.020;7.822;2023-08-30T16:00:09;21.90;99.90
2565;DHT22;1292;48.020;7.822;2023-08-30T16:02:37;21.90;99.90
2565;DHT22;1292;48.020;7.822;2023-08-30T16:05:04;21.90;99.90
2565;DHT22;1292;48.020;7.822;2023-08-30T16:07:31;22.00;99.90
2565;DHT22;1292;48.020;7.822;2023-08-30T16:09:58;21.90;99.90
2565;DHT22;1292;48.020;7.822;2023-08-30T16:12:25;21.80;99.90
2565;DHT22;1292;48.020;7.822;2023-08-30T16:14:51;21.70;99.90
2565;DHT22;1292;48.020;7.822;2023-08-30T16:17:18;21.70;99.90
2565;DHT22;1292;48.020;7.822;2023-08-30T16:19:46;21.70;99.90
2565;DHT22;1292;48.020;7.822;2023-08-30T16:22:13;21.70;99.90
2565;DHT22;1292;48.020;7.822;2023-08-30T16:24:40;21.70;99.90
2565;DHT22;1292;48.020;7.822;2023-08-30T16:27:07;21.70;99.90
2565;DHT22;1292;48.020;7.822;2023-08-30T16:29:34;21.60;99.90
2565;DHT22;1292;48.020;7.822;2023-08-30T16:32:00;21.60;99.90
2565;DHT22;1292;48.020;7.822;2023-08-30T16:34:27;21.50;99.90
2565;DHT22;1292;48.020;7.822;2023-08-30T16:36:55;21.40;99.90
2565;DHT22;1292;48.020;7.822;2023-08-30T16:39:22;21.40;99.90
2565;DHT22;1292;48.020;7.822;2023-08-30T16:41:50;21.40;99.90
2565;DHT22;1292;48.020;7.822;2023-08-30T16:44:17;21.30;99.90
2565;DHT22;1292;48.020;7.822;2023-08-30T16:46:44;21.30;99.90
2565;DHT22;1292;48.020;7.822;2023-08-30T16:49:11;21.30;99.90
2565;DHT22;1292;48.020;7.822;2023-08-30T16:51:39;21.30;99.90
2565;DHT22;1292;48.020;7.822;2023-08-30T16:54:07;21.30;99.90
2565;DHT22;1292;48.020;7.822;2023-08-30T16:56:36;21.30;99.90
2565;DHT22;1292;48.020;7.822;2023-08-30T16:59:02;21.20;99.90
2565;DHT22;1292;48.020;7.822;2023-08-30T17:01:29;21.20;99.90
2565;DHT22;1292;48.020;7.822;2023-08-30T17:03:56;21.00;99.90
2565;DHT22;1292;48.020;7.822;2023-08-30T17:06:23;21.00;99.90
2565;DHT22;1292;48.020;7.822;2023-08-30T17:08:49;20.90;99.90
2565;DHT22;1292;48.020;7.822;2023-08-30T17:11:18;20.70;99.90
2565;DHT22;1292;48.020;7.822;2023-08-30T17:13:44;20.60;99.90
2565;DHT22;1292;48.020;7.822;2023-08-30T17:16:11;20.60;99.90
2565;DHT22;1292;48.020;7.822;2023-08-30T17:18:38;20.50;99.90
2565;DHT22;1292;48.020;7.822;2023-08-30T17:21:05;20.50;99.90
2565;DHT22;1292;48.020;7.822;2023-08-30T17:23:35;20.50;99.90
2565;DHT22;1292;48.020;7.822;2023-08-30T17:26:02;20.40;99.90
2565;DHT22;1292;48.020;7.822;2023-08-30T17:28:30;20.40;99.90
2565;DHT22;1292;48.020;7.822;2023-08-30T17:30:57;20.40;99.90
2565;DHT22;1292;48.020;7.822;2023-08-30T17:33:24;20.40;99.90
2565;DHT22;1292;48.020;7.822;2023-08-30T17:35:53;20.20;99.90
2565;DHT22;1292;48.020;7.822;2023-08-30T17:38:20;20.30;99.90
2565;DHT22;1292;48.020;7.822;2023-08-30T17:40:47;20.30;99.90
2565;DHT22;1292;48.020;7.822;2023-08-30T17:43:14;20.20;99.90
2565;DHT22;1292;48.020;7.822;2023-08-30T17:45:42;20.10;99.90
2565;DHT22;1292;48.020;7.822;2023-08-30T17:48:11;20.10;99.90
2565;DHT22;1292;48.020;7.822;2023-08-30T17:50:41;20.10;99.90
2565;DHT22;1292;48.020;7.822;2023-08-30T17:53:08;20.00;99.90
2565;DHT22;1292;48.020;7.822;2023-08-30T17:55:35;20.00;99.90
2565;DHT22;1292;48.020;7.822;2023-08-30T17:58:02;20.00;99.90
2565;DHT22;1292;48.020;7.822;2023-08-30T18:00:31;19.90;99.90
2565;DHT22;1292;48.020;7.822;2023-08-30T18:02:59;19.80;99.90
2565;DHT22;1292;48.020;7.822;2023-08-30T18:05:27;19.90;99.90
2565;DHT22;1292;48.020;7.822;2023-08-30T18:07:54;19.80;99.90
2565;DHT22;1292;48.020;7.822;2023-08-30T18:10:21;19.80;99.90
2565;DHT22;1292;48.020;7.822;2023-08-30T18:12:48;19.80;99.90
2565;DHT22;1292;48.020;7.822;2023-08-30T18:15:15;19.70;99.90
2565;DHT22;1292;48.020;7.822;2023-08-30T18:17:42;19.70;99.90
2565;DHT22;1292;48.020;7.822;2023-08-30T18:20:11;19.70;99.90
2565;DHT22;1292;48.020;7.822;2023-08-30T18:22:40;19.70;99.90
2565;DHT22;1292;48.020;7.822;2023-08-30T18:25:07;19.70;99.90
2565;DHT22;1292;48.020;7.822;2023-08-30T18:27:34;19.70;99.90
2565;DHT22;1292;48.020;7.822;2023-08-30T18:30:03;19.60;99.90
2565;DHT22;1292;48.020;7.822;2023-08-30T18:32:32;19.60;99.90
2565;DHT22;1292;48.020;7.822;2023-08-30T18:34:59;19.50;99.90
2565;DHT22;1292;48.020;7.822;2023-08-30T18:37:27;19.60;99.90
2565;DHT22;1292;48.020;7.822;2023-08-30T18:39:54;19.60;99.90
2565;DHT22;1292;48.020;7.822;2023-08-30T18:42:21;19.50;99.90
2565;DHT22;1292;48.020;7.822;2023-08-30T18:44:48;19.60;99.90
2565;DHT22;1292;48.020;7.822;2023-08-30T18:47:15;19.50;99.90
2565;DHT22;1292;48.020;7.822;2023-08-30T18:49:46;19.50;99.90
2565;DHT22;1292;48.020;7.822;2023-08-30T18:52:14;19.50;99.90
2565;DHT22;1292;48.020;7.822;2023-08-30T18:54:42;19.50;99.90
2565;DHT22;1292;48.020;7.822;2023-08-30T18:57:10;19.50;99.90
2565;DHT22;1292;48.020;7.822;2023-08-30T18:59:37;19.50;99.90
2565;DHT22;1292;48.020;7.822;2023-08-30T19:02:04;19.40;99.90
2565;DHT22;1292;48.020;7.822;2023-08-30T19:04:32;19.40;99.90
2565;DHT22;1292;48.020;7.822;2023-08-30T19:06:59;19.40;99.90
2565;DHT22;1292;48.020;7.822;2023-08-30T19:09:26;19.40;99.90
2565;DHT22;1292;48.020;7.822;2023-08-30T19:11:54;19.40;99.90
2565;DHT22;1292;48.020;7.822;2023-08-30T19:14:21;19.40;99.90
2565;DHT22;1292;48.020;7.822;2023-08-30T19:16:48;19.30;99.90
2565;DHT22;1292;48.020;7.822;2023-08-30T19:19:15;19.40;99.90
2565;DHT22;1292;48.020;7.822;2023-08-30T19:21:42;19.40;99.90
2565;DHT22;1292;48.020;7.822;2023-08-30T19:24:09;19.30;99.90
2565;DHT22;1292;48.020;7.822;2023-08-30T19:26:36;19.30;99.90
2565;DHT22;1292;48.020;7.822;2023-08-30T19:29:04;19.30;99.90
2565;DHT22;1292;48.020;7.822;2023-08-30T19:31:32;19.30;99.90
2565;DHT22;1292;48.020;7.822;2023-08-30T19:34:00;19.30;99.90
2565;DHT22;1292;48.020;7.822;2023-08-30T19:36:27;19.20;99.90
2565;DHT22;1292;48.020;7.822;2023-08-30T19:38:54;19.20;99.90
2565;DHT22;1292;48.020;7.822;2023-08-30T19:41:24;19.20;99.90
2565;DHT22;1292;48.020;7.822;2023-08-30T19:43:52;19.30;99.90
2565;DHT22;1292;48.020;7.822;2023-08-30T19:46:22;19.20;99.90
2565;DHT22;1292;48.020;7.822;2023-08-30T19:48:49;19.20;99.90
2565;DHT22;1292;48.020;7.822;2023-08-30T19:51:16;19.20;99.90
2565;DHT22;1292;48.020;7.822;2023-08-30T19:53:44;19.20;99.90
2565;DHT22;1292;48.020;7.822;2023-08-30T19:56:14;19.20;99.90
2565;DHT22;1292;48.020;7.822;2023-08-30T19:58:41;19.20;99.90
2565;DHT22;1292;48.020;7.822;2023-08-30T20:01:08;19.20;99.90
2565;DHT22;1292;48.020;7.822;2023-08-30T20:03:37;19.20;99.90
2565;DHT22;1292;48.020;7.822;2023-08-30T20:06:04;19.20;99.90
2565;DHT22;1292;48.020;7.822;2023-08-30T20:08:31;19.30;99.90
2565;DHT22;1292;48.020;7.822;2023-08-30T20:11:01;19.30;99.90
2565;DHT22;1292;48.020;7.822;2023-08-30T20:13:29;19.20;99.90
2565;DHT22;1292;48.020;7.822;2023-08-30T20:15:57;19.20;99.90
2565;DHT22;1292;48.020;7.822;2023-08-30T20:18:25;19.20;99.90
2565;DHT22;1292;48.020;7.822;2023-08-30T20:20:54;19.20;99.90
2565;DHT22;1292;48.020;7.822;2023-08-30T20:23:22;19.20;99.90
2565;DHT22;1292;48.020;7.822;2023-08-30T20:25:49;19.10;99.90
2565;DHT22;1292;48.020;7.822;2023-08-30T20:28:17;19.10;99.90
2565;DHT22;1292;48.020;7.822;2023-08-30T20:30:46;19.10;99.90
2565;DHT22;1292;48.020;7.822;2023-08-30T20:33:14;19.20;99.90
2565;DHT22;1292;48.020;7.822;2023-08-30T20:35:41;19.10;99.90
2565;DHT22;1292;48.020;7.822;2023-08-30T20:38:10;19.00;99.90
2565;DHT22;1292;48.020;7.822;2023-08-30T20:40:40;19.00;99.90
2565;DHT22;1292;48.020;7.822;2023-08-30T20:43:08;18.90;99.90
2565;DHT22;1292;48.020;7.822;2023-08-30T20:45:35;18.90;99.90
2565;DHT22;1292;48.020;7.822;2023-08-30T20:48:03;18.90;99.90
2565;DHT22;1292;48.020;7.822;2023-08-30T20:50:32;18.90;99.90
2565;DHT22;1292;48.020;7.822;2023-08-30T20:52:59;18.80;99.90
2565;DHT22;1292;48.020;7.822;2023-08-30T20:55:28;18.80;99.90
2565;DHT22;1292;48.020;7.822;2023-08-30T20:57:55;18.80;99.90
2565;DHT22;1292;48.020;7.822;2023-08-30T21:00:23;18.80;99.90
2565;DHT22;1292;48.020;7.822;2023-08-30T21:02:50;18.80;99.90
2565;DHT22;1292;48.020;7.822;2023-08-30T21:05:17;18.90;99.90
2565;DHT22;1292;48.020;7.822;2023-08-30T21:07:43;18.90;99.90
2565;DHT22;1292;48.020;7.822;2023-08-30T21:10:10;19.00;99.90
2565;DHT22;1292;48.020;7.822;2023-08-30T21:12:39;19.00;99.90
2565;DHT22;1292;48.020;7.822;2023-08-30T21:15:08;19.00;99.90
2565;DHT22;1292;48.020;7.822;2023-08-30T21:17:36;18.90;99.90
2565;DHT22;1292;48.020;7.822;2023-08-30T21:20:03;18.70;99.90
2565;DHT22;1292;48.020;7.822;2023-08-30T21:22:31;18.60;99.90
2565;DHT22;1292;48.020;7.822;2023-08-30T21:24:57;18.40;99.90
2565;DHT22;1292;48.020;7.822;2023-08-30T21:27:25;18.00;99.90
2565;DHT22;1292;48.020;7.822;2023-08-30T21:29:53;17.80;99.90
2565;DHT22;1292;48.020;7.822;2023-08-30T21:32:21;17.70;99.90
2565;DHT22;1292;48.020;7.822;2023-08-30T21:34:49;17.60;99.90
2565;DHT22;1292;48.020;7.822;2023-08-30T21:37:16;17.40;99.90
2565;DHT22;1292;48.020;7.822;2023-08-30T21:39:44;17.40;99.90
